createdAt,value
2019-01-11T00:01:45.226Z,2.84
2019-01-11T00:06:51.623Z,2.64
2019-01-11T00:11:58.039Z,2.15
2019-01-11T00:17:07.393Z,2.47
2019-01-11T00:22:14.306Z,2.16
2019-01-11T00:27:20.647Z,2.73
2019-01-11T00:32:28.878Z,3.10
2019-01-11T00:37:35.253Z,2.73
2019-01-11T00:42:43.331Z,2.50
2019-01-11T00:47:51.386Z,2.28
2019-01-11T00:52:57.490Z,2.31
2019-01-11T00:58:03.436Z,2.66
2019-01-11T01:03:09.828Z,2.92
2019-01-11T01:08:15.958Z,3.19
2019-01-11T01:13:22.616Z,3.48
2019-01-11T01:18:28.446Z,3.38
2019-01-11T01:23:36.016Z,3.28
2019-01-11T01:28:42.284Z,3.00
2019-01-11T01:33:48.308Z,2.79
2019-01-11T01:38:54.062Z,2.67
2019-01-11T01:43:59.847Z,2.89
2019-01-11T01:49:06.565Z,3.03
2019-01-11T01:54:14.213Z,2.68
2019-01-11T01:59:20.439Z,2.77
2019-01-11T02:04:26.609Z,3.11
2019-01-11T02:09:34.097Z,2.88
2019-01-11T02:14:41.182Z,3.17
2019-01-11T02:19:48.453Z,2.59
2019-01-11T02:24:57.261Z,2.93
2019-01-11T02:30:04.163Z,2.40
2019-01-11T02:35:10.870Z,2.59
2019-01-11T02:40:19.043Z,2.64
2019-01-11T02:45:26.634Z,2.57
2019-01-11T02:50:32.840Z,2.71
2019-01-11T02:55:41.106Z,2.88
2019-01-11T03:00:48.035Z,3.25
2019-01-11T03:05:54.466Z,2.75
2019-01-11T03:11:02.266Z,3.34
2019-01-11T03:16:08.942Z,3.13
2019-01-11T03:21:15.015Z,3.49
2019-01-11T03:26:21.431Z,3.20
2019-01-11T03:31:29.437Z,3.48
2019-01-11T03:36:36.394Z,3.20
2019-01-11T03:41:44.324Z,3.12
2019-01-11T03:46:50.952Z,3.46
2019-01-11T03:51:59.032Z,3.53
2019-01-11T03:57:05.507Z,3.26
2019-01-11T04:02:12.403Z,3.30
2019-01-11T04:07:20.984Z,3.12
2019-01-11T04:12:27.600Z,3.35
2019-01-11T04:17:34.283Z,3.35
2019-01-11T04:22:42.562Z,3.32
2019-01-11T04:27:50.202Z,2.95
2019-01-11T04:32:57.244Z,3.01
2019-01-11T04:38:04.008Z,2.95
2019-01-11T04:43:10.773Z,3.06
2019-01-11T04:48:17.715Z,3.11
2019-01-11T04:53:24.487Z,2.93
2019-01-11T04:58:31.823Z,3.10
2019-01-11T05:03:39.482Z,2.90
2019-01-11T05:08:45.336Z,2.51
2019-01-11T05:13:52.377Z,3.04
2019-01-11T05:18:58.699Z,3.20
2019-01-11T05:24:05.747Z,3.14
2019-01-11T05:29:12.108Z,2.88
2019-01-11T05:34:18.938Z,3.22
2019-01-11T05:39:25.375Z,2.88
2019-01-11T05:44:32.385Z,3.40
2019-01-11T05:49:38.652Z,3.46
2019-01-11T05:54:44.992Z,2.84
2019-01-11T05:59:52.058Z,3.18
2019-01-11T06:04:59.636Z,3.10
2019-01-11T06:10:12.842Z,2.88
2019-01-11T06:15:19.575Z,3.30
2019-01-11T06:20:30.183Z,3.14
2019-01-11T06:25:35.606Z,3.13
2019-01-11T06:30:43.415Z,3.39
2019-01-11T06:35:49.938Z,3.11
2019-01-11T06:40:56.503Z,2.81
2019-01-11T06:46:03.133Z,2.86
2019-01-11T06:51:09.680Z,3.31
2019-01-11T06:56:16.389Z,3.37
2019-01-11T07:01:23.119Z,3.20
2019-01-11T07:06:30.626Z,3.11
2019-01-11T07:11:37.822Z,3.05
2019-01-11T07:16:44.463Z,2.97
2019-01-11T07:21:51.535Z,3.07
2019-01-11T07:26:57.905Z,2.89
2019-01-11T07:32:04.611Z,3.04
2019-01-11T07:37:12.122Z,3.25
2019-01-11T07:42:20.039Z,3.40
2019-01-11T07:47:27.192Z,3.09
2019-01-11T07:52:34.145Z,2.81
2019-01-11T07:57:41.871Z,3.00
2019-01-11T08:02:51.888Z,3.27
2019-01-11T08:07:58.298Z,3.49
2019-01-11T08:13:06.023Z,3.48
2019-01-11T08:18:12.695Z,3.68
2019-01-11T08:23:19.238Z,3.28
2019-01-11T08:28:26.379Z,3.17
2019-01-11T08:33:32.938Z,3.45
2019-01-11T08:38:39.439Z,3.67
2019-01-11T08:43:46.089Z,3.57
2019-01-11T08:48:52.132Z,3.29
2019-01-11T08:53:58.953Z,3.40
2019-01-11T08:59:05.156Z,3.04
2019-01-11T09:04:12.229Z,2.99
2019-01-11T09:09:18.285Z,3.41
2019-01-11T09:14:29.115Z,3.06
2019-01-11T09:19:35.771Z,3.39
2019-01-11T09:24:43.383Z,3.22
2019-01-11T09:29:50.188Z,3.03
2019-01-11T09:34:56.248Z,3.39
2019-01-11T09:40:02.918Z,3.24
2019-01-11T09:45:11.230Z,3.16
2019-01-11T09:50:21.042Z,3.29
2019-01-11T09:55:27.536Z,3.58
2019-01-11T10:00:34.342Z,3.61
2019-01-11T10:05:43.394Z,3.47
2019-01-11T10:10:50.629Z,3.56
2019-01-11T10:15:58.776Z,3.65
2019-01-11T10:21:04.819Z,3.51
2019-01-11T10:26:12.111Z,3.69
2019-01-11T10:31:18.826Z,3.55
2019-01-11T10:36:25.247Z,3.79
2019-01-11T10:41:32.589Z,3.89
2019-01-11T10:46:40.269Z,3.64
2019-01-11T10:51:47.093Z,4.16
2019-01-11T10:56:52.924Z,3.96
2019-01-11T11:01:59.803Z,4.16
2019-01-11T11:07:05.604Z,4.30
2019-01-11T11:12:11.311Z,4.34
2019-01-11T11:17:17.098Z,3.95
2019-01-11T11:22:23.372Z,4.43
2019-01-11T11:27:29.206Z,4.27
2019-01-11T11:32:36.793Z,4.59
2019-01-11T11:37:43.381Z,4.62
2019-01-11T11:42:49.974Z,4.42
2019-01-11T11:47:56.308Z,4.41
2019-01-11T11:53:02.352Z,5.02
2019-01-11T11:58:08.337Z,4.42
2019-01-11T12:03:14.034Z,4.43
2019-01-11T12:08:20.188Z,4.53
2019-01-11T12:13:26.489Z,4.86
2019-01-11T12:18:32.822Z,4.47
2019-01-11T12:23:38.960Z,4.20
2019-01-11T12:28:45.258Z,4.37
2019-01-11T12:33:51.196Z,4.54
2019-01-11T12:38:56.857Z,4.45
2019-01-11T12:44:02.558Z,4.67
2019-01-11T12:49:08.375Z,4.60
2019-01-11T12:54:15.985Z,4.45
2019-01-11T12:59:23.354Z,4.57
2019-01-11T13:04:30.388Z,5.04
2019-01-11T13:09:38.669Z,4.99
2019-01-11T13:14:44.571Z,4.69
2019-01-11T13:19:50.167Z,4.65
2019-01-11T13:24:55.878Z,4.70
2019-01-11T13:30:01.786Z,5.28
2019-01-11T13:35:08.678Z,5.10
2019-01-11T13:40:19.876Z,5.20
2019-01-11T13:45:26.523Z,5.09
2019-01-11T13:50:37.658Z,5.40
2019-01-11T13:55:43.475Z,5.22
2019-01-11T14:00:49.379Z,5.67
2019-01-11T14:05:55.368Z,5.45
2019-01-11T14:11:01.365Z,5.23
2019-01-11T14:16:07.481Z,5.52
2019-01-11T14:21:13.994Z,5.55
2019-01-11T14:26:19.911Z,5.58
2019-01-11T14:31:25.755Z,5.46
2019-01-11T14:36:31.697Z,5.72
2019-01-11T14:41:37.888Z,5.96
2019-01-11T14:46:43.928Z,5.78
2019-01-11T14:51:50.120Z,5.90
2019-01-11T14:56:56.007Z,6.32
2019-01-11T15:02:02.098Z,5.88
2019-01-11T15:07:07.864Z,6.01
2019-01-11T15:12:14.047Z,6.28
2019-01-11T15:17:21.292Z,6.56
2019-01-11T15:22:31.340Z,6.18
2019-01-11T15:27:36.999Z,6.49
2019-01-11T15:32:43.178Z,6.53
2019-01-11T15:37:48.925Z,6.33
2019-01-11T15:42:55.042Z,6.32
2019-01-11T15:48:00.616Z,6.71
2019-01-11T15:53:06.228Z,6.90
2019-01-11T15:58:12.362Z,6.84
2019-01-11T16:03:18.621Z,6.61
2019-01-11T16:08:24.370Z,6.92
2019-01-11T16:13:29.948Z,6.84
2019-01-11T16:18:35.539Z,6.90
2019-01-11T16:23:41.383Z,7.32
2019-01-11T16:28:47.271Z,7.18
2019-01-11T16:33:52.884Z,7.23
2019-01-11T16:38:59.018Z,7.31
2019-01-11T16:44:06.179Z,6.68
2019-01-11T16:49:11.964Z,6.89
2019-01-11T16:54:18.638Z,7.08
2019-01-11T16:59:24.716Z,7.42
2019-01-11T17:04:30.418Z,7.40
2019-01-11T17:09:36.234Z,7.29
2019-01-11T17:14:43.068Z,7.17
2019-01-11T17:19:49.117Z,7.13
2019-01-11T17:24:55.494Z,7.02
2019-01-11T17:30:01.811Z,7.57
2019-01-11T17:35:07.848Z,7.39
2019-01-11T17:40:13.712Z,7.20
2019-01-11T17:45:20.437Z,7.42
2019-01-11T17:50:26.370Z,7.35
2019-01-11T17:55:33.909Z,7.51
2019-01-11T18:00:41.422Z,7.44
2019-01-11T18:05:48.220Z,7.50
2019-01-11T18:10:54.443Z,7.68
2019-01-11T18:16:00.177Z,7.61
2019-01-11T18:21:08.934Z,7.76
2019-01-11T18:26:15.383Z,7.53
2019-01-11T18:31:24.645Z,7.87
2019-01-11T18:36:32.048Z,7.66
2019-01-11T18:41:37.743Z,7.64
2019-01-11T18:46:43.910Z,7.97
2019-01-11T18:51:51.417Z,7.47
2019-01-11T18:56:59.741Z,7.56
2019-01-11T19:02:06.903Z,7.81
2019-01-11T19:07:13.650Z,7.45
2019-01-11T19:12:20.230Z,7.60
2019-01-11T19:17:27.168Z,7.59
2019-01-11T19:22:32.825Z,7.59
2019-01-11T19:27:39.403Z,7.50
2019-01-11T19:32:45.730Z,7.88
2019-01-11T19:37:51.391Z,7.12
2019-01-11T19:42:57.926Z,7.54
2019-01-11T19:48:04.188Z,7.60
2019-01-11T19:53:10.692Z,7.14
2019-01-11T19:58:17.279Z,7.53
2019-01-11T20:03:22.981Z,7.71
2019-01-11T20:08:30.183Z,7.43
2019-01-11T20:13:35.770Z,7.31
2019-01-11T20:18:42.126Z,7.58
2019-01-11T20:23:48.256Z,6.96
2019-01-11T20:28:54.176Z,7.20
2019-01-11T20:34:00.432Z,6.87
2019-01-11T20:39:08.098Z,7.03
2019-01-11T20:44:15.581Z,7.40
2019-01-11T20:49:24.622Z,7.12
2019-01-11T20:54:31.180Z,7.16
2019-01-11T20:59:36.947Z,7.11
2019-01-11T21:04:42.863Z,7.32
2019-01-11T21:09:49.118Z,7.20
2019-01-11T21:14:58.355Z,7.40
2019-01-11T21:20:05.889Z,6.97
2019-01-11T21:25:15.257Z,6.78
2019-01-11T21:30:23.781Z,6.74
2019-01-11T21:35:30.052Z,7.11
2019-01-11T21:40:36.467Z,6.81
2019-01-11T21:45:42.613Z,6.75
2019-01-11T21:50:48.549Z,6.76
2019-01-11T21:55:54.512Z,6.73
2019-01-11T22:01:00.420Z,6.81
2019-01-11T22:06:06.208Z,7.08
2019-01-11T22:11:12.714Z,7.07
2019-01-11T22:16:18.606Z,6.88
2019-01-11T22:21:25.616Z,7.00
2019-01-11T22:26:31.364Z,7.29
2019-01-11T22:31:37.360Z,6.92
2019-01-11T22:36:43.148Z,7.04
2019-01-11T22:41:49.366Z,7.07
2019-01-11T22:46:55.452Z,6.92
2019-01-11T22:52:02.563Z,6.61
2019-01-11T22:57:08.959Z,7.25
2019-01-11T23:02:17.681Z,6.99
2019-01-11T23:07:26.557Z,7.03
2019-01-11T23:12:35.222Z,6.79
2019-01-11T23:17:46.274Z,6.72
2019-01-11T23:22:52.095Z,6.81
2019-01-11T23:27:58.115Z,7.00
2019-01-11T23:33:04.330Z,6.99
2019-01-11T23:38:11.198Z,7.29
2019-01-11T23:43:16.844Z,7.06
2019-01-11T23:48:22.433Z,6.99
2019-01-11T23:53:29.616Z,6.71
2019-01-11T23:58:35.477Z,6.62
